Time,TemperatureF,DewpointF,PressureIn,WindDirection,WindDirectionDegrees,WindSpeedMPH,WindSpeedGustMPH,Humidity,HourlyPrecipIn,Conditions,Clouds,dailyrainin,SoftwareType,DateUTC
2013-11-13 00:00:00,55.0,33.5,30.01,SSW,209,0.0,0.0,44,0.00,,---,0.00,VWS V13.01,2013-11-13 08:00:00,
2013-11-13 00:01:00,54.8,33.3,30.01,SSW,209,0.0,0.0,44,0.00,,---,0.00,VWS V13.01,2013-11-13 08:01:00,
2013-11-13 00:06:00,55.0,32.9,30.01,SSW,209,0.0,0.0,43,0.00,,---,0.00,VWS V13.01,2013-11-13 08:06:00,
2013-11-13 00:11:00,54.8,33.3,30.01,SSW,209,0.0,0.0,44,0.00,,---,0.00,VWS V13.01,2013-11-13 08:11:00,
2013-11-13 00:16:00,54.8,32.8,30.01,SSW,209,0.0,0.0,43,0.00,,---,0.00,VWS V13.01,2013-11-13 08:16:00,
2013-11-13 00:21:00,54.7,33.2,30.01,SSW,209,0.0,0.0,44,0.00,,---,0.00,VWS V13.01,2013-11-13 08:21:00,
2013-11-13 00:26:00,54.7,33.2,30.01,SSW,209,0.0,0.0,44,0.00,,---,0.00,VWS V13.01,2013-11-13 08:26:00,
2013-11-13 00:30:00,54.5,32.5,30.00,SSW,209,0.0,0.0,43,0.00,,---,0.00,VWS V13.01,2013-11-13 08:30:00,
2013-11-13 00:31:00,54.5,33.0,30.01,SSW,209,0.0,0.0,44,0.00,,---,0.00,VWS V13.01,2013-11-13 08:31:00,
2013-11-13 00:36:00,54.5,32.5,30.00,SSW,209,0.0,0.0,43,0.00,,---,0.00,VWS V13.01,2013-11-13 08:36:00,
2013-11-13 00:41:00,54.5,32.5,30.00,SSW,209,0.0,0.0,43,0.00,,---,0.00,VWS V13.01,2013-11-13 08:41:00,
2013-11-13 00:46:00,54.5,33.0,30.00,SSW,209,0.0,0.0,44,0.00,,---,0.00,VWS V13.01,2013-11-13 08:46:00,
2013-11-13 00:51:00,54.4,33.0,30.00,SSW,209,0.0,0.0,44,0.00,,---,0.00,VWS V13.01,2013-11-13 08:51:00,
2013-11-13 00:56:00,54.4,33.0,30.00,SSW,209,0.0,0.0,44,0.00,,---,0.00,VWS V13.01,2013-11-13 08:56:00,
2013-11-13 01:00:00,54.2,33.3,29.99,SSW,209,0.0,0.0,45,0.00,,---,0.00,VWS V13.01,2013-11-13 09:00:00,
2013-11-13 01:01:00,54.2,33.3,30.00,SSW,209,0.0,0.0,45,0.00,,---,0.00,VWS V13.01,2013-11-13 09:01:00,
2013-11-13 01:06:00,54.2,32.8,29.99,SSW,209,0.0,0.0,44,0.00,,---,0.00,VWS V13.01,2013-11-13 09:06:00,
2013-11-13 01:11:00,54.2,33.3,29.99,SSW,209,0.0,0.0,45,0.00,,---,0.00,VWS V13.01,2013-11-13 09:11:00,
2013-11-13 01:16:00,54.1,33.2,29.99,SSW,209,0.0,0.0,45,0.00,,---,0.00,VWS V13.01,2013-11-13 09:16:00,
2013-11-13 01:21:00,54.1,33.2,30.00,SSW,209,0.0,0.0,45,0.00,,---,0.00,VWS V13.01,2013-11-13 09:21:00,
2013-11-13 01:26:00,54.1,33.8,30.00,SSW,209,0.0,0.0,46,0.00,,---,0.00,VWS V13.01,2013-11-13 09:26:00,
2013-11-13 01:30:00,53.9,33.6,29.99,SSW,209,0.0,0.0,46,0.00,,---,0.00,VWS V13.01,2013-11-13 09:30:00,
2013-11-13 01:31:00,53.9,33.6,30.00,SSW,209,0.0,0.0,46,0.00,,---,0.00,VWS V13.01,2013-11-13 09:31:00,
2013-11-13 01:36:00,53.9,33.6,29.99,SSW,209,0.0,0.0,46,0.00,,---,0.00,VWS V13.01,2013-11-13 09:36:00,
2013-11-13 01:41:00,53.8,33.5,29.99,SSW,209,0.0,0.0,46,0.00,,---,0.00,VWS V13.01,2013-11-13 09:41:00,
2013-11-13 01:46:00,53.6,33.3,29.99,SSW,209,0.0,0.0,46,0.00,,---,0.00,VWS V13.01,2013-11-13 09:46:00,
2013-11-13 01:51:00,53.5,33.2,29.99,SSW,209,0.0,0.0,46,0.00,,---,0.00,VWS V13.01,2013-11-13 09:51:00,
2013-11-13 01:56:00,53.5,33.2,29.99,SSW,209,0.0,0.0,46,0.00,,---,0.00,VWS V13.01,2013-11-13 09:56:00,
2013-11-13 02:00:00,53.3,33.1,29.99,SSW,209,0.0,0.0,46,0.00,,---,0.00,VWS V13.01,2013-11-13 10:00:00,
2013-11-13 02:01:00,53.3,33.6,29.99,SSW,209,0.0,0.0,47,0.00,,---,0.00,VWS V13.01,2013-11-13 10:01:00,
2013-11-13 02:06:00,53.2,33.0,29.99,SSW,209,0.0,0.0,46,0.00,,---,0.00,VWS V13.01,2013-11-13 10:06:00,
2013-11-13 02:11:00,53.2,33.0,29.99,SSW,209,0.0,0.0,46,0.00,,---,0.00,VWS V13.01,2013-11-13 10:11:00,
2013-11-13 02:16:00,53.1,33.4,29.99,SSW,209,0.0,0.0,47,0.00,,---,0.00,VWS V13.01,2013-11-13 10:16:00,
2013-11-13 02:21:00,53.1,32.9,29.98,SSW,209,0.0,0.0,46,0.00,,---,0.00,VWS V13.01,2013-11-13 10:21:00,
2013-11-13 02:26:00,53.1,32.9,29.98,SSW,209,0.0,0.0,46,0.00,,---,0.00,VWS V13.01,2013-11-13 10:26:00,
2013-11-13 02:30:00,52.9,32.7,29.98,SSW,209,0.0,0.0,46,0.00,,---,0.00,VWS V13.01,2013-11-13 10:30:00,
2013-11-13 02:31:00,52.9,33.2,29.98,SSW,209,0.0,0.0,47,0.00,,---,0.00,VWS V13.01,2013-11-13 10:31:00,
2013-11-13 02:36:00,52.8,33.2,29.98,SSW,209,0.0,0.0,47,0.00,,---,0.00,VWS V13.01,2013-11-13 10:36:00,
2013-11-13 02:41:00,52.8,33.2,29.98,SSW,209,0.0,0.0,47,0.00,,---,0.00,VWS V13.01,2013-11-13 10:41:00,
2013-11-13 02:46:00,52.8,32.6,29.98,SSW,209,0.0,0.0,46,0.00,,---,0.00,VWS V13.01,2013-11-13 10:46:00,
2013-11-13 02:51:00,52.9,32.7,29.98,SSW,209,0.0,0.0,46,0.00,,---,0.00,VWS V13.01,2013-11-13 10:51:00,
2013-11-13 02:56:00,52.9,33.2,29.98,SSW,209,0.0,0.0,47,0.00,,---,0.00,VWS V13.01,2013-11-13 10:56:00,
2013-11-13 03:00:00,52.9,33.2,29.97,SSW,209,0.0,0.0,47,0.00,,---,0.00,VWS V13.01,2013-11-13 11:00:00,
2013-11-13 03:01:00,52.9,33.2,29.98,SSW,209,0.0,0.0,47,0.00,,---,0.00,VWS V13.01,2013-11-13 11:01:00,
2013-11-13 03:06:00,52.9,33.2,29.97,SSW,209,0.0,0.0,47,0.00,,---,0.00,VWS V13.01,2013-11-13 11:06:00,
2013-11-13 03:11:00,52.9,33.8,29.97,SSW,209,0.0,0.0,48,0.00,,---,0.00,VWS V13.01,2013-11-13 11:11:00,
2013-11-13 03:16:00,52.8,33.7,29.97,SSW,209,0.0,0.0,48,0.00,,---,0.00,VWS V13.01,2013-11-13 11:16:00,
2013-11-13 03:21:00,52.6,33.5,29.97,SSW,209,0.0,0.0,48,0.00,,---,0.00,VWS V13.01,2013-11-13 11:21:00,
2013-11-13 03:26:00,52.6,34.0,29.97,SSW,209,0.0,0.0,49,0.00,,---,0.00,VWS V13.01,2013-11-13 11:26:00,
2013-11-13 03:30:00,52.5,33.9,29.97,North,0,0.0,0.0,49,0.00,,---,0.00,VWS V13.01,2013-11-13 11:30:00,
2013-11-13 04:00:00,52.5,32.3,29.97,North,0,0.0,0.0,46,0.00,,---,0.00,VWS V13.01,2013-11-13 12:00:00,
2013-11-13 04:30:00,52.0,32.4,29.96,North,0,0.0,0.0,47,0.00,,---,0.00,VWS V13.01,2013-11-13 12:30:00,
2013-11-13 05:00:00,52.0,32.4,29.96,North,0,0.0,0.0,47,0.00,,---,0.00,VWS V13.01,2013-11-13 13:00:00,
2013-11-13 05:30:00,52.0,34.0,29.96,North,0,0.0,0.0,50,0.00,,---,0.00,VWS V13.01,2013-11-13 13:30:00,
2013-11-13 06:00:00,52.0,33.5,29.97,WSW,248,0.0,2.0,49,0.00,,---,0.00,VWS V13.01,2013-11-13 14:00:00,
2013-11-13 06:30:00,52.2,35.1,29.98,WSW,248,0.0,1.0,52,0.00,,---,0.00,VWS V13.01,2013-11-13 14:30:00,
2013-11-13 07:00:00,52.5,33.4,29.99,WSW,248,0.0,0.0,48,0.00,,---,0.00,VWS V13.01,2013-11-13 15:00:00,
2013-11-13 07:30:00,54.4,34.6,29.99,WSW,248,0.0,0.0,47,0.00,,---,0.00,VWS V13.01,2013-11-13 15:30:00,
2013-11-13 08:00:00,57.5,36.9,29.98,WSW,248,0.0,0.0,46,0.00,,---,0.00,VWS V13.01,2013-11-13 16:00:00,
2013-11-13 08:30:00,61.6,40.6,29.97,WSW,248,0.0,0.0,46,0.00,,---,0.00,VWS V13.01,2013-11-13 16:30:00,
2013-11-13 09:00:00,66.4,37.9,29.97,WSW,248,0.0,0.0,35,0.00,,---,0.00,VWS V13.01,2013-11-13 17:00:00,
2013-11-13 09:30:00,71.6,31.9,29.96,WSW,248,0.0,0.0,23,0.00,,---,0.00,VWS V13.01,2013-11-13 17:30:00,
2013-11-13 10:00:00,76.8,28.7,29.95,East,90,0.0,5.0,17,0.00,,---,0.00,VWS V13.01,2013-11-13 18:00:00,
2013-11-13 10:30:00,79.9,31.2,29.94,East,90,1.0,5.0,17,0.00,,---,0.00,VWS V13.01,2013-11-13 18:30:00,
2013-11-13 11:00:00,82.2,28.3,29.92,East,90,1.0,6.0,14,0.00,,---,0.00,VWS V13.01,2013-11-13 19:00:00,
2013-11-13 11:30:00,83.6,27.6,29.90,East,90,1.0,5.0,13,0.00,,---,0.00,VWS V13.01,2013-11-13 19:30:00,
2013-11-13 12:00:00,84.9,28.6,29.89,East,90,1.0,5.0,13,0.00,,---,0.00,VWS V13.01,2013-11-13 20:00:00,
2013-11-13 12:30:00,86.1,25.5,29.88,East,90,1.0,7.0,11,0.00,,---,0.00,VWS V13.01,2013-11-13 20:30:00,
2013-11-13 13:00:00,86.5,25.8,29.86,East,90,1.0,6.0,11,0.00,,---,0.00,VWS V13.01,2013-11-13 21:00:00,
2013-11-13 13:30:00,86.3,25.7,29.85,East,90,2.0,10.0,11,0.00,,---,0.00,VWS V13.01,2013-11-13 21:30:00,
2013-11-13 14:00:00,86.5,23.5,29.84,East,90,1.0,11.0,10,0.00,,---,0.00,VWS V13.01,2013-11-13 22:00:00,
2013-11-13 14:38:00,85.9,23.1,29.83,East,90,1.0,7.0,10,0.00,,---,0.00,VWS V13.01,2013-11-13 22:38:00,
2013-11-13 14:43:00,86.3,23.4,29.83,ESE,107,6.0,7.0,10,0.00,,---,0.00,VWS V13.01,2013-11-13 22:43:00,
2013-11-13 14:48:00,86.5,23.5,29.83,East,89,0.0,7.0,10,0.00,,---,0.00,VWS V13.01,2013-11-13 22:48:00,
2013-11-13 14:53:00,86.5,21.0,29.83,ENE,71,1.0,7.0,9,0.00,,---,0.00,VWS V13.01,2013-11-13 22:53:00,
2013-11-13 14:58:00,86.7,26.0,29.83,ENE,71,0.0,7.0,11,0.00,,---,0.00,VWS V13.01,2013-11-13 22:58:00,
2013-11-13 15:02:00,87.0,26.2,29.83,SE,133,0.0,2.0,11,0.00,,---,0.00,VWS V13.01,2013-11-13 23:02:00,
2013-11-13 15:07:00,87.2,24.1,29.83,SW,234,3.0,3.0,10,0.00,,---,0.00,VWS V13.01,2013-11-13 23:07:00,
2013-11-13 15:12:00,87.0,23.9,29.83,NE,47,1.0,6.0,10,0.00,,---,0.00,VWS V13.01,2013-11-13 23:12:00,
2013-11-13 15:17:00,87.2,24.1,29.83,NE,42,0.0,6.0,10,0.00,,---,0.00,VWS V13.01,2013-11-13 23:17:00,
2013-11-13 15:22:00,87.0,23.9,29.83,ENE,78,2.0,10.0,10,0.00,,---,0.00,VWS V13.01,2013-11-13 23:22:00,
2013-11-13 15:27:00,87.0,23.9,29.83,East,92,1.0,10.0,10,0.00,,---,0.00,VWS V13.01,2013-11-13 23:27:00,
2013-11-13 15:32:00,87.0,23.9,29.83,NNW,329,3.0,3.0,10,0.00,,---,0.00,VWS V13.01,2013-11-13 23:32:00,
2013-11-13 15:37:00,87.0,26.2,29.83,NNE,27,0.0,7.0,11,0.00,,---,0.00,VWS V13.01,2013-11-13 23:37:00,
2013-11-13 15:42:00,86.7,23.7,29.83,East,89,2.0,7.0,10,0.00,,---,0.00,VWS V13.01,2013-11-13 23:42:00,
2013-11-13 15:47:00,86.7,23.7,29.83,ENE,65,0.0,7.0,10,0.00,,---,0.00,VWS V13.01,2013-11-13 23:47:00,
2013-11-13 15:52:00,86.5,23.5,29.83,East,93,0.0,7.0,10,0.00,,---,0.00,VWS V13.01,2013-11-13 23:52:00,
2013-11-13 15:57:00,86.3,23.4,29.83,NE,38,0.0,7.0,10,0.00,,---,0.00,VWS V13.01,2013-11-13 23:57:00,
2013-11-13 16:02:00,86.1,23.2,29.83,NE,52,0.0,0.0,10,0.00,,---,0.00,VWS V13.01,2013-11-14 00:02:00,
2013-11-13 16:07:00,85.7,25.2,29.83,ENE,68,1.0,1.0,11,0.00,,---,0.00,VWS V13.01,2013-11-14 00:07:00,
2013-11-13 16:12:00,85.3,24.9,29.83,East,89,3.0,5.0,11,0.00,,---,0.00,VWS V13.01,2013-11-14 00:12:00,
2013-11-13 16:17:00,84.5,22.0,29.84,North,0,0.0,5.0,10,0.00,,---,0.00,VWS V13.01,2013-11-14 00:17:00,
2013-11-13 16:22:00,84.1,24.0,29.84,NE,37,0.0,5.0,11,0.00,,---,0.00,VWS V13.01,2013-11-14 00:22:00,
2013-11-13 16:27:00,83.6,25.7,29.84,ESE,107,0.0,5.0,12,0.00,,---,0.00,VWS V13.01,2013-11-14 00:27:00,
2013-11-13 16:32:00,83.2,23.3,29.84,ESE,107,0.0,0.0,11,0.00,,---,0.00,VWS V13.01,2013-11-14 00:32:00,
2013-11-13 16:37:00,82.6,24.9,29.84,ESE,107,0.0,0.0,12,0.00,,---,0.00,VWS V13.01,2013-11-14 00:37:00,
2013-11-13 16:42:00,82.2,24.6,29.84,ESE,107,0.0,1.0,12,0.00,,---,0.00,VWS V13.01,2013-11-14 00:42:00,
2013-11-13 16:47:00,81.4,25.9,29.84,ESE,107,0.0,1.0,13,0.00,,---,0.00,VWS V13.01,2013-11-14 00:47:00,
2013-11-13 16:52:00,80.5,28.6,29.84,ESE,107,0.0,1.0,15,0.00,,---,0.00,VWS V13.01,2013-11-14 00:52:00,
2013-11-13 16:57:00,79.6,27.9,29.84,ESE,107,0.0,1.0,15,0.00,,---,0.00,VWS V13.01,2013-11-14 00:57:00,
2013-11-13 17:02:00,78.8,27.3,29.85,NNE,30,0.0,1.0,15,0.00,,---,0.00,VWS V13.01,2013-11-14 01:02:00,
2013-11-13 17:07:00,77.9,29.6,29.85,NNE,30,0.0,0.0,17,0.00,,---,0.00,VWS V13.01,2013-11-14 01:07:00,
2013-11-13 17:12:00,76.8,28.7,29.85,NNE,28,0.0,2.0,17,0.00,,---,0.00,VWS V13.01,2013-11-14 01:12:00,
2013-11-13 17:17:00,76.3,28.3,29.86,NNE,28,0.0,2.0,17,0.00,,---,0.00,VWS V13.01,2013-11-14 01:17:00,
2013-11-13 17:22:00,75.4,29.0,29.86,NNE,28,0.0,2.0,18,0.00,,---,0.00,VWS V13.01,2013-11-14 01:22:00,
2013-11-13 17:27:00,74.7,28.4,29.86,NNE,28,0.0,2.0,18,0.00,,---,0.00,VWS V13.01,2013-11-14 01:27:00,
2013-11-13 17:32:00,74.2,29.3,29.86,NNE,28,0.0,0.0,19,0.00,,---,0.00,VWS V13.01,2013-11-14 01:32:00,
2013-11-13 17:37:00,73.3,29.8,29.86,NNE,28,0.0,0.0,20,0.00,,---,0.00,VWS V13.01,2013-11-14 01:37:00,
2013-11-13 17:42:00,72.8,29.4,29.86,NNE,28,0.0,0.0,20,0.00,,---,0.00,VWS V13.01,2013-11-14 01:42:00,
2013-11-13 17:47:00,72.1,30.0,29.87,NNE,28,0.0,1.0,21,0.00,,---,0.00,VWS V13.01,2013-11-14 01:47:00,
2013-11-13 17:52:00,71.8,29.8,29.87,NNE,28,0.0,1.0,21,0.00,,---,0.00,VWS V13.01,2013-11-14 01:52:00,
2013-11-13 17:57:00,71.5,30.7,29.87,NNE,28,0.0,1.0,22,0.00,,---,0.00,VWS V13.01,2013-11-14 01:57:00,
2013-11-13 18:02:00,70.9,30.2,29.88,NNE,28,0.0,1.0,22,0.00,,---,0.00,VWS V13.01,2013-11-14 02:02:00,
2013-11-13 18:07:00,70.6,29.9,29.88,NNE,28,0.0,1.0,22,0.00,,---,0.00,VWS V13.01,2013-11-14 02:07:00,
2013-11-13 18:12:00,70.1,30.6,29.88,NNE,28,0.0,1.0,23,0.00,,---,0.00,VWS V13.01,2013-11-14 02:12:00,
2013-11-13 18:17:00,69.6,31.2,29.88,NNE,28,0.0,1.0,24,0.00,,---,0.00,VWS V13.01,2013-11-14 02:17:00,
2013-11-13 18:22:00,69.1,31.8,29.88,NNE,28,0.0,2.0,25,0.00,,---,0.00,VWS V13.01,2013-11-14 02:22:00,
2013-11-13 18:27:00,68.4,32.2,29.88,NNE,28,0.0,2.0,26,0.00,,---,0.00,VWS V13.01,2013-11-14 02:27:00,
2013-11-13 18:32:00,67.9,31.8,29.89,NNE,28,0.0,0.0,26,0.00,,---,0.00,VWS V13.01,2013-11-14 02:32:00,
2013-11-13 18:37:00,67.4,32.3,29.89,NNE,28,0.0,0.0,27,0.00,,---,0.00,VWS V13.01,2013-11-14 02:37:00,
2013-11-13 18:42:00,66.9,32.8,29.89,NNE,28,0.0,0.0,28,0.00,,---,0.00,VWS V13.01,2013-11-14 02:42:00,
2013-11-13 18:47:00,66.4,32.3,29.89,NNE,28,0.0,0.0,28,0.00,,---,0.00,VWS V13.01,2013-11-14 02:47:00,
2013-11-13 18:52:00,66.3,30.4,29.89,ESE,103,0.0,3.0,26,0.00,,---,0.00,VWS V13.01,2013-11-14 02:52:00,
2013-11-13 18:57:00,66.4,30.5,29.89,ESE,104,1.0,3.0,26,0.00,,---,0.00,VWS V13.01,2013-11-14 02:57:00,
2013-11-13 19:02:00,66.4,30.5,29.90,East,93,0.0,3.0,26,0.00,,---,0.00,VWS V13.01,2013-11-14 03:02:00,
2013-11-13 19:07:00,66.3,31.4,29.90,East,93,0.0,0.0,27,0.00,,---,0.00,VWS V13.01,2013-11-14 03:07:00,
2013-11-13 19:12:00,66.0,31.1,29.90,East,93,0.0,0.0,27,0.00,,---,0.00,VWS V13.01,2013-11-14 03:12:00,
2013-11-13 19:17:00,65.6,30.8,29.89,East,93,0.0,0.0,27,0.00,,---,0.00,VWS V13.01,2013-11-14 03:17:00,
2013-11-13 19:22:00,65.3,32.3,29.89,North,6,0.0,3.0,29,0.00,,---,0.00,VWS V13.01,2013-11-14 03:22:00,
2013-11-13 19:27:00,65.2,33.0,29.89,North,6,0.0,3.0,30,0.00,,---,0.00,VWS V13.01,2013-11-14 03:27:00,
2013-11-13 19:32:00,65.0,32.0,29.89,North,6,0.0,0.0,29,0.00,,---,0.00,VWS V13.01,2013-11-14 03:32:00,
2013-11-13 19:37:00,64.7,34.2,29.89,North,6,0.0,1.0,32,0.00,,---,0.00,VWS V13.01,2013-11-14 03:37:00,
2013-11-13 19:42:00,64.3,33.0,29.89,North,7,0.0,1.0,31,0.00,,---,0.00,VWS V13.01,2013-11-14 03:42:00,
2013-11-13 19:47:00,64.2,33.8,29.88,North,6,0.0,2.0,32,0.00,,---,0.00,VWS V13.01,2013-11-14 03:47:00,
2013-11-13 19:52:00,64.2,33.8,29.88,North,6,0.0,2.0,32,0.00,,---,0.00,VWS V13.01,2013-11-14 03:52:00,
2013-11-13 19:57:00,64.0,33.6,29.88,East,97,0.0,5.0,32,0.00,,---,0.00,VWS V13.01,2013-11-14 03:57:00,
2013-11-13 20:02:00,63.9,31.9,29.88,East,97,0.0,5.0,30,0.00,,---,0.00,VWS V13.01,2013-11-14 04:02:00,
2013-11-13 20:07:00,64.0,32.8,29.88,East,97,0.0,0.0,31,0.00,,---,0.00,VWS V13.01,2013-11-14 04:07:00,
2013-11-13 20:12:00,63.9,33.5,29.88,East,97,1.0,2.0,32,0.00,,---,0.00,VWS V13.01,2013-11-14 04:12:00,
2013-11-13 20:17:00,63.9,32.7,29.87,East,97,0.0,2.0,31,0.00,,---,0.00,VWS V13.01,2013-11-14 04:17:00,
2013-11-13 20:22:00,63.5,33.1,29.87,East,97,0.0,2.0,32,0.00,,---,0.00,VWS V13.01,2013-11-14 04:22:00,
2013-11-13 20:27:00,63.2,34.4,29.87,SW,232,0.0,2.0,34,0.00,,---,0.00,VWS V13.01,2013-11-14 04:27:00,
2013-11-13 20:32:00,62.9,33.4,29.88,SW,232,0.0,2.0,33,0.00,,---,0.00,VWS V13.01,2013-11-14 04:32:00,
2013-11-13 20:37:00,62.7,32.4,29.88,SW,232,0.0,1.0,32,0.00,,---,0.00,VWS V13.01,2013-11-14 04:37:00,
2013-11-13 20:42:00,62.6,31.6,29.88,SW,232,0.0,1.0,31,0.00,,---,0.00,VWS V13.01,2013-11-14 04:42:00,
2013-11-13 20:47:00,62.4,32.2,29.88,SW,232,0.0,1.0,32,0.00,,---,0.00,VWS V13.01,2013-11-14 04:47:00,
2013-11-13 20:52:00,62.1,31.1,29.88,SW,232,0.0,1.0,31,0.00,,---,0.00,VWS V13.01,2013-11-14 04:52:00,
2013-11-13 20:57:00,61.8,30.1,29.88,SW,232,0.0,1.0,30,0.00,,---,0.00,VWS V13.01,2013-11-14 04:57:00,
2013-11-13 21:01:00,61.8,30.9,29.88,SW,232,0.0,1.0,31,0.00,,---,0.00,VWS V13.01,2013-11-14 05:01:00,
2013-11-13 21:06:00,61.5,31.4,29.88,SW,232,0.0,0.0,32,0.00,,---,0.00,VWS V13.01,2013-11-14 05:06:00,
2013-11-13 21:11:00,61.2,31.9,29.88,SW,232,0.0,0.0,33,0.00,,---,0.00,VWS V13.01,2013-11-14 05:11:00,
2013-11-13 21:16:00,61.0,33.9,29.88,SW,232,0.0,0.0,36,0.00,,---,0.00,VWS V13.01,2013-11-14 05:16:00,
2013-11-13 21:21:00,60.9,33.1,29.87,SW,232,0.0,0.0,35,0.00,,---,0.00,VWS V13.01,2013-11-14 05:21:00,
2013-11-13 21:26:00,60.7,32.2,29.87,SW,232,1.0,1.0,34,0.00,,---,0.00,VWS V13.01,2013-11-14 05:26:00,
2013-11-13 21:31:00,60.5,31.3,29.87,SW,232,0.0,1.0,33,0.00,,---,0.00,VWS V13.01,2013-11-14 05:31:00,
2013-11-13 21:36:00,60.5,32.0,29.88,SW,232,0.0,0.0,34,0.00,,---,0.00,VWS V13.01,2013-11-14 05:36:00,
2013-11-13 21:41:00,60.5,29.7,29.88,SW,232,0.0,0.0,31,0.00,,---,0.00,VWS V13.01,2013-11-14 05:41:00,
2013-11-13 21:46:00,60.4,29.6,29.88,SW,232,0.0,0.0,31,0.00,,---,0.00,VWS V13.01,2013-11-14 05:46:00,
2013-11-13 21:51:00,60.4,28.9,29.88,SW,232,0.0,0.0,30,0.00,,---,0.00,VWS V13.01,2013-11-14 05:51:00,
2013-11-13 21:56:00,60.4,29.6,29.88,SW,232,0.0,0.0,31,0.00,,---,0.00,VWS V13.01,2013-11-14 05:56:00,
2013-11-13 22:01:00,60.4,30.4,29.88,SW,232,0.0,0.0,32,0.00,,---,0.00,VWS V13.01,2013-11-14 06:01:00,
2013-11-13 22:06:00,60.2,30.2,29.88,SW,232,0.0,0.0,32,0.00,,---,0.00,VWS V13.01,2013-11-14 06:06:00,
2013-11-13 22:11:00,60.1,29.4,29.88,SW,232,0.0,0.0,31,0.00,,---,0.00,VWS V13.01,2013-11-14 06:11:00,
2013-11-13 22:16:00,60.1,30.2,29.88,SW,232,0.0,0.0,32,0.00,,---,0.00,VWS V13.01,2013-11-14 06:16:00,
2013-11-13 22:21:00,59.9,29.2,29.87,SW,232,0.0,0.0,31,0.00,,---,0.00,VWS V13.01,2013-11-14 06:21:00,
2013-11-13 22:26:00,59.9,29.2,29.87,SW,232,0.0,0.0,31,0.00,,---,0.00,VWS V13.01,2013-11-14 06:26:00,
2013-11-13 22:31:00,59.9,29.2,29.87,SW,232,0.0,0.0,31,0.00,,---,0.00,VWS V13.01,2013-11-14 06:31:00,
2013-11-13 22:36:00,59.8,29.9,29.87,SW,232,0.0,0.0,32,0.00,,---,0.00,VWS V13.01,2013-11-14 06:36:00,
2013-11-13 22:41:00,59.8,30.7,29.87,SW,232,0.0,0.0,33,0.00,,---,0.00,VWS V13.01,2013-11-14 06:41:00,
2013-11-13 22:46:00,59.5,30.4,29.87,SW,232,0.0,0.0,33,0.00,,---,0.00,VWS V13.01,2013-11-14 06:46:00,
2013-11-13 22:51:00,59.5,29.6,29.86,SW,232,0.0,0.0,32,0.00,,---,0.00,VWS V13.01,2013-11-14 06:51:00,
2013-11-13 22:56:00,59.3,31.0,29.86,SW,232,0.0,0.0,34,0.00,,---,0.00,VWS V13.01,2013-11-14 06:56:00,
2013-11-13 23:01:00,59.2,29.4,29.86,SW,232,0.0,0.0,32,0.00,,---,0.00,VWS V13.01,2013-11-14 07:01:00,
2013-11-13 23:06:00,58.9,29.9,29.87,SW,232,0.0,0.0,33,0.00,,---,0.00,VWS V13.01,2013-11-14 07:06:00,
2013-11-13 23:11:00,58.7,30.4,29.87,SW,232,0.0,0.0,34,0.00,,---,0.00,VWS V13.01,2013-11-14 07:11:00,
2013-11-13 23:16:00,58.6,30.3,29.87,SW,232,0.0,0.0,34,0.00,,---,0.00,VWS V13.01,2013-11-14 07:16:00,
2013-11-13 23:21:00,58.4,28.7,29.86,SW,232,0.0,0.0,32,0.00,,---,0.00,VWS V13.01,2013-11-14 07:21:00,
2013-11-13 23:26:00,58.4,29.4,29.86,SW,232,0.0,0.0,33,0.00,,---,0.00,VWS V13.01,2013-11-14 07:26:00,
2013-11-13 23:31:00,58.3,29.3,29.86,SW,232,0.0,0.0,33,0.00,,---,0.00,VWS V13.01,2013-11-14 07:31:00,
2013-11-13 23:36:00,58.3,29.3,29.86,SW,232,0.0,0.0,33,0.00,,---,0.00,VWS V13.01,2013-11-14 07:36:00,
2013-11-13 23:41:00,58.1,29.9,29.86,SW,232,0.0,0.0,34,0.00,,---,0.00,VWS V13.01,2013-11-14 07:41:00,
2013-11-13 23:46:00,58.1,29.9,29.86,SW,232,0.0,0.0,34,0.00,,---,0.00,VWS V13.01,2013-11-14 07:46:00,
2013-11-13 23:51:00,58.0,29.8,29.86,SW,232,0.0,0.0,34,0.00,,---,0.00,VWS V13.01,2013-11-14 07:51:00,
2013-11-13 23:56:00,58.0,29.8,29.86,SW,232,0.0,0.0,34,0.00,,---,0.00,VWS V13.01,2013-11-14 07:56:00,